createdAt,value
2023-03-02T01:16:09.513Z,101981.34
2023-03-02T01:18:38.703Z,101979.91
2023-03-02T01:21:10.792Z,101984.25
2023-03-02T01:23:37.535Z,101972.94
2023-03-02T01:26:04.326Z,101970.19
2023-03-02T01:28:30.924Z,101976.44
2023-03-02T01:30:57.386Z,101976.34
2023-03-02T01:33:23.856Z,101971.00
2023-03-02T01:35:50.379Z,101974.66
2023-03-02T01:38:17.004Z,101973.91
2023-03-02T01:40:43.644Z,101974.13
2023-03-02T01:43:15.667Z,101973.25
2023-03-02T01:45:54.570Z,101970.81
2023-03-02T01:48:31.535Z,101967.38
2023-03-02T01:50:59.113Z,101967.28
2023-03-02T01:53:29.444Z,101961.06
2023-03-02T01:55:57.139Z,101953.31
2023-03-02T01:58:25.684Z,101947.28
2023-03-02T02:00:53.172Z,101945.56
2023-03-02T02:03:26.261Z,101945.53
2023-03-02T02:09:44.188Z,101939.38
2023-03-02T02:12:16.822Z,101936.88
2023-03-02T02:14:44.043Z,101937.78
2023-03-02T02:17:12.268Z,101931.72
2023-03-02T02:19:38.649Z,101933.44
2023-03-02T02:22:05.180Z,101934.22
2023-03-02T02:24:44.010Z,101927.28
2023-03-02T02:27:12.762Z,101935.34
2023-03-02T02:29:47.162Z,101932.72
2023-03-02T02:32:18.831Z,101928.47
2023-03-02T02:34:51.384Z,101928.56
2023-03-02T02:37:28.926Z,101923.28
2023-03-02T02:39:55.896Z,101939.06
2023-03-02T02:42:32.982Z,101932.94
2023-03-02T02:45:16.718Z,101937.41
2023-03-02T02:47:43.644Z,101935.72
2023-03-02T02:50:19.170Z,101934.03
2023-03-02T02:52:51.599Z,101936.69
2023-03-02T04:14:45.580Z,101912.63
2023-03-02T04:17:12.011Z,101906.59
2023-03-02T04:19:38.650Z,101903.16
2023-03-02T04:22:05.241Z,101902.47
2023-03-02T04:24:32.085Z,101914.88
2023-03-02T04:26:58.769Z,101914.88
2023-03-02T04:29:25.562Z,101912.25
2023-03-02T04:31:52.039Z,101906.91
2023-03-02T04:34:18.549Z,101909.66
2023-03-02T04:36:45.571Z,101913.31
2023-03-02T04:39:14.887Z,101913.22
2023-03-02T04:41:41.626Z,101921.19
2023-03-02T04:44:08.058Z,101918.47
2023-03-02T04:46:35.373Z,101923.91
2023-03-02T04:49:02.051Z,101923.72
2023-03-02T04:51:31.836Z,101926.34
2023-03-02T04:54:01.434Z,101928.97
2023-03-02T04:56:28.361Z,101926.34
2023-03-02T04:58:55.155Z,101926.47
2023-03-02T05:01:21.805Z,101922.03
2023-03-02T05:03:48.788Z,101921.13
2023-03-02T05:06:16.172Z,101917.56
2023-03-02T05:08:43.257Z,101922.91
2023-03-02T05:11:13.686Z,101916.06
2023-03-02T05:13:40.138Z,101911.69
2023-03-02T05:16:06.890Z,101914.22
2023-03-02T05:18:33.324Z,101904.53
2023-03-02T05:20:59.780Z,101905.38
2023-03-02T05:23:28.537Z,101909.78
2023-03-02T05:25:56.040Z,101912.38
2023-03-02T05:28:24.980Z,101916.56
2023-03-02T05:30:52.150Z,101917.44
2023-03-02T05:33:19.057Z,101919.34
2023-03-02T05:35:46.131Z,101918.41
2023-03-02T05:38:12.684Z,101920.28
2023-03-02T05:40:40.074Z,101921.13
2023-03-02T05:43:07.050Z,101921.91
2023-03-02T05:45:36.731Z,101920.28
2023-03-02T05:48:04.343Z,101928.97
2023-03-02T05:50:31.063Z,101930.00
2023-03-02T05:53:00.049Z,101922.19
2023-03-02T05:55:26.873Z,101920.34
2023-03-02T05:57:53.338Z,101918.72
2023-03-02T06:00:20.842Z,101915.19
2023-03-02T06:02:47.846Z,101917.88
2023-03-02T06:05:18.689Z,101921.28
2023-03-02T06:07:45.638Z,101920.19
2023-03-02T06:10:13.439Z,101923.91
2023-03-02T06:12:40.705Z,101929.06
2023-03-02T06:15:08.643Z,101926.59
2023-03-02T06:49:50.181Z,101943.28
2023-03-02T06:52:17.244Z,101944.28
2023-03-02T06:54:43.753Z,101946.81
2023-03-02T06:57:10.709Z,101951.09
2023-03-02T06:59:37.208Z,101948.44
2023-03-02T07:02:04.135Z,101950.22
2023-03-02T07:04:30.883Z,101951.84
2023-03-02T07:06:57.418Z,101951.00
2023-03-02T07:09:24.417Z,101943.75
2023-03-02T07:11:50.936Z,101950.84
2023-03-02T07:14:17.387Z,101944.66
2023-03-02T07:16:44.069Z,101943.81
2023-03-02T07:19:12.934Z,101943.75
2023-03-02T07:21:39.724Z,101944.56
2023-03-02T07:24:06.557Z,101939.88
2023-03-02T07:26:33.216Z,101944.25
2023-03-02T07:28:59.934Z,101947.28
2023-03-02T07:31:27.460Z,101945.38
2023-03-02T07:33:54.043Z,101940.91
2023-03-02T07:36:20.552Z,101944.19
2023-03-02T07:38:47.024Z,101955.16
2023-03-02T07:41:15.430Z,101952.34
2023-03-02T07:43:42.067Z,101949.53
2023-03-02T07:46:08.599Z,101957.97
2023-03-02T07:48:36.795Z,101954.63
2023-03-02T07:51:05.136Z,101952.63
2023-03-02T07:53:31.997Z,101952.88
2023-03-02T07:55:58.606Z,101954.47
2023-03-02T07:58:25.144Z,101956.63
2023-03-02T08:00:51.638Z,101952.59
2023-03-02T08:03:18.080Z,101953.19
2023-03-02T08:05:44.616Z,101948.22
2023-03-02T08:08:11.068Z,101943.19
2023-03-02T08:10:37.600Z,101951.81
2023-03-02T08:13:04.942Z,101944.22
2023-03-02T08:15:31.404Z,101940.53
2023-03-02T08:17:58.066Z,101947.41
2023-03-02T08:20:24.776Z,101941.75
2023-03-02T08:22:51.801Z,101936.72
2023-03-02T08:25:18.568Z,101933.63
2023-03-02T08:27:46.109Z,101929.47
2023-03-02T08:30:13.470Z,101941.34
2023-03-02T08:32:40.404Z,101939.03
2023-03-02T08:35:07.310Z,101941.34
2023-03-02T08:37:34.583Z,101941.78
2023-03-02T08:40:01.203Z,101934.84
2023-03-02T08:42:27.662Z,101939.84
2023-03-02T08:44:54.099Z,101937.06
2023-03-02T08:47:20.565Z,101925.81
2023-03-02T08:49:48.275Z,101930.06
2023-03-02T08:52:15.274Z,101921.09
2023-03-02T08:54:42.101Z,101926.16
2023-03-02T08:57:11.873Z,101923.03
2023-03-02T08:59:38.542Z,101921.94
2023-03-02T09:02:05.265Z,101925.00
2023-03-02T09:04:31.946Z,101915.81
2023-03-02T09:06:58.383Z,101910.56
2023-03-02T09:09:24.900Z,101909.00
2023-03-02T09:11:51.346Z,101910.34
2023-03-02T09:14:17.784Z,101913.19
2023-03-02T09:16:45.430Z,101910.94
2023-03-02T09:19:13.769Z,101916.22
2023-03-02T09:21:40.210Z,101905.47
2023-03-02T09:24:06.911Z,101902.50
2023-03-02T09:26:34.011Z,101903.88
2023-03-02T09:29:00.799Z,101895.44
2023-03-02T09:31:29.830Z,101900.19
2023-03-02T09:33:57.163Z,101899.28
2023-03-02T09:36:25.452Z,101902.31
2023-03-02T09:38:53.185Z,101900.50
2023-03-02T09:41:19.696Z,101897.00
2023-03-02T09:44:33.396Z,101892.84
2023-03-02T09:47:07.927Z,101897.06
2023-03-02T09:49:53.757Z,101900.47
2023-03-02T09:52:33.630Z,101888.41
2023-03-02T09:55:21.951Z,101899.16
2023-03-02T09:57:48.833Z,101896.38
2023-03-02T10:00:36.712Z,101899.28
2023-03-02T10:03:16.747Z,101893.44
2023-03-02T10:05:54.209Z,101904.75
2023-03-02T10:08:34.200Z,101907.63
2023-03-02T10:11:38.069Z,101900.44
2023-03-02T10:14:20.411Z,101896.34
2023-03-02T10:17:04.519Z,101903.25
2023-03-02T10:19:47.679Z,101898.69
2023-03-02T10:22:14.080Z,101905.28
2023-03-02T10:25:22.234Z,101904.81
2023-03-02T10:27:55.974Z,101898.41
2023-03-02T10:30:30.980Z,101899.50
2023-03-02T10:33:02.983Z,101893.50
2023-03-02T10:35:31.695Z,101889.75
2023-03-02T10:38:04.473Z,101894.38
2023-03-02T10:40:42.703Z,101881.72
2023-03-02T10:43:34.580Z,101887.19
2023-03-02T10:46:02.176Z,101891.09
2023-03-02T10:48:29.028Z,101885.34
2023-03-02T10:50:58.337Z,101882.78
2023-03-02T10:53:25.127Z,101875.97
2023-03-02T10:55:53.427Z,101879.47
2023-03-02T10:58:25.891Z,101871.56
2023-03-02T11:01:00.771Z,101879.44
2023-03-02T11:03:27.947Z,101880.50
2023-03-02T11:05:55.389Z,101866.78
2023-03-02T11:08:24.487Z,101871.16
2023-03-02T11:10:53.821Z,101877.72
2023-03-02T11:13:35.733Z,101878.97
2023-03-02T11:16:21.509Z,101876.56
2023-03-02T11:19:27.034Z,101869.28
2023-03-02T11:22:22.224Z,101875.97
2023-03-02T11:24:53.172Z,101869.69
2023-03-02T11:27:29.851Z,101873.97
2023-03-02T11:30:04.572Z,101871.78
2023-03-02T11:32:43.186Z,101868.31
2023-03-02T11:35:14.600Z,101862.78
2023-03-02T11:37:52.630Z,101856.91
2023-03-02T11:40:46.125Z,101854.91
2023-03-02T11:43:13.758Z,101854.66
2023-03-02T11:45:51.297Z,101849.03
2023-03-02T11:48:24.174Z,101850.75
2023-03-02T11:51:05.605Z,101845.81
2023-03-02T11:54:29.484Z,101851.59
2023-03-02T11:56:56.156Z,101860.50
2023-03-02T11:59:25.753Z,101854.72
2023-03-02T12:01:56.842Z,101844.53
2023-03-02T12:04:49.287Z,101847.06
2023-03-02T12:07:27.276Z,101843.41
2023-03-02T12:10:22.380Z,101841.69
2023-03-02T12:13:02.371Z,101833.94
2023-03-02T12:15:38.987Z,101837.16
2023-03-02T12:18:20.560Z,101827.22
2023-03-02T12:21:10.240Z,101817.19
2023-03-02T12:23:53.381Z,101814.13
2023-03-02T12:26:20.066Z,101816.88
2023-03-02T12:29:03.759Z,101810.88
2023-03-02T12:31:46.505Z,101813.22
2023-03-02T12:34:38.078Z,101798.84
2023-03-02T12:37:13.936Z,101800.91
2023-03-02T12:39:50.703Z,101784.91
2023-03-02T12:42:52.547Z,101784.13
2023-03-02T12:45:30.032Z,101781.91
2023-03-02T12:48:04.771Z,101788.22
2023-03-02T12:50:37.546Z,101789.06
2023-03-02T12:53:14.108Z,101782.00
2023-03-02T12:55:41.041Z,101789.44
2023-03-02T12:58:21.870Z,101781.53
2023-03-02T13:01:03.059Z,101783.56
2023-03-02T13:03:31.634Z,101772.47
2023-03-02T13:06:13.387Z,101771.66
2023-03-02T13:08:42.560Z,101765.41
2023-03-02T13:11:09.134Z,101753.91
2023-03-02T13:13:39.365Z,101764.28
2023-03-02T13:16:19.439Z,101760.56
2023-03-02T13:18:46.532Z,101764.13
2023-03-02T13:21:14.951Z,101762.56
2023-03-02T13:23:51.669Z,101764.81
2023-03-02T13:26:39.747Z,101767.56
2023-03-02T13:29:19.248Z,101762.94
2023-03-02T13:31:45.827Z,101765.34
2023-03-02T13:34:45.207Z,101753.91
2023-03-02T13:37:26.797Z,101751.56
2023-03-02T13:40:02.109Z,101754.38
2023-03-02T13:42:40.590Z,101746.94
2023-03-02T13:45:30.204Z,101747.38
2023-03-02T13:47:59.543Z,101745.13
2023-03-02T13:50:32.224Z,101745.03
2023-03-02T13:53:02.483Z,101741.16
2023-03-02T13:55:29.489Z,101720.84
2023-03-02T13:57:56.156Z,101723.66
2023-03-02T14:00:25.876Z,101728.84
2023-03-02T14:02:52.346Z,101726.69
2023-03-02T14:05:25.523Z,101720.91
2023-03-02T14:07:52.115Z,101721.00
2023-03-02T14:10:20.480Z,101713.22
2023-03-02T14:12:55.682Z,101715.56
2023-03-02T14:15:22.265Z,101716.72
2023-03-02T14:17:49.352Z,101709.09
2023-03-02T14:20:19.882Z,101710.78
2023-03-02T14:22:50.694Z,101703.19
2023-03-02T14:25:17.374Z,101708.66
2023-03-02T14:27:44.156Z,101697.81
2023-03-02T14:30:20.037Z,101695.88
2023-03-02T14:32:47.148Z,101703.56
2023-03-02T14:35:15.976Z,101689.66
2023-03-02T14:37:49.831Z,101683.75
2023-03-02T14:40:28.261Z,101680.94
2023-03-02T14:42:55.398Z,101684.66
2023-03-02T14:45:21.954Z,101676.94
2023-03-02T14:47:49.089Z,101675.38
2023-03-02T14:50:19.272Z,101678.97
2023-03-02T14:52:50.072Z,101664.38
2023-03-02T14:55:27.084Z,101675.22
2023-03-02T14:58:10.716Z,101671.28
2023-03-02T15:00:38.736Z,101673.25
2023-03-02T15:03:05.371Z,101675.72
2023-03-02T15:05:32.134Z,101681.16
2023-03-02T15:07:58.968Z,101679.53
2023-03-02T15:10:25.618Z,101683.22
2023-03-02T15:12:52.379Z,101677.53
2023-03-02T15:15:19.027Z,101677.03
2023-03-02T15:17:45.593Z,101685.72
2023-03-02T15:20:16.694Z,101686.00
2023-03-02T15:22:43.630Z,101686.88
2023-03-02T15:25:10.841Z,101676.28
2023-03-02T15:27:37.544Z,101692.09
2023-03-02T15:30:05.388Z,101686.59
2023-03-02T15:32:32.145Z,101686.19
2023-03-02T15:34:58.644Z,101686.69
2023-03-02T15:37:25.131Z,101676.47
2023-03-02T15:39:56.156Z,101675.50
2023-03-02T15:42:23.616Z,101671.03
2023-03-02T15:44:50.285Z,101673.16
2023-03-02T15:47:17.144Z,101677.13
2023-03-02T15:49:43.677Z,101678.44
2023-03-02T15:52:10.333Z,101673.28
2023-03-02T15:54:36.794Z,101671.78
2023-03-02T15:57:03.472Z,101668.44
2023-03-02T15:59:31.657Z,101678.16
2023-03-02T16:02:02.360Z,101676.50
2023-03-02T16:04:30.692Z,101669.22
2023-03-02T16:06:57.585Z,101659.00
2023-03-02T16:09:25.537Z,101663.22
2023-03-02T16:11:52.889Z,101666.19
2023-03-02T16:14:19.443Z,101665.13
2023-03-02T16:16:46.704Z,101670.66
2023-03-02T16:19:17.217Z,101672.53
2023-03-02T16:21:45.656Z,101664.03
2023-03-02T16:24:13.200Z,101654.53
2023-03-02T16:26:39.762Z,101663.22
2023-03-02T16:29:08.086Z,101664.09
2023-03-02T16:31:37.722Z,101661.09
2023-03-02T16:34:09.033Z,101659.56
2023-03-02T16:36:37.593Z,101664.00
2023-03-02T16:39:04.950Z,101666.88
2023-03-02T16:41:31.635Z,101661.19
2023-03-02T16:43:59.494Z,101656.44
2023-03-02T16:46:29.324Z,101662.16
2023-03-02T16:48:57.325Z,101658.31
2023-03-02T16:51:24.210Z,101664.16
2023-03-02T16:53:51.011Z,101671.19
2023-03-02T16:56:17.583Z,101669.41
2023-03-02T16:58:44.154Z,101684.38
2023-03-02T17:01:14.816Z,101672.81
2023-03-02T17:03:42.708Z,101679.94
2023-03-02T17:06:11.675Z,101688.03
2023-03-02T17:08:38.722Z,101687.16
2023-03-02T17:11:05.806Z,101687.78
2023-03-02T17:13:32.435Z,101695.13
2023-03-02T17:15:58.975Z,101695.06
2023-03-02T17:18:29.296Z,101696.06
2023-03-02T17:20:58.041Z,101705.97
2023-03-02T17:23:24.957Z,101693.88
2023-03-02T17:25:51.472Z,101695.13
2023-03-02T17:28:18.011Z,101703.84
2023-03-02T17:30:45.300Z,101702.75
2023-03-02T17:33:12.145Z,101709.50
2023-03-02T17:35:38.749Z,101706.63
2023-03-02T17:38:05.815Z,101711.09
2023-03-02T17:40:32.892Z,101708.97
2023-03-02T17:42:59.558Z,101709.44
2023-03-02T17:45:27.576Z,101708.03
2023-03-02T17:47:55.547Z,101708.59
2023-03-02T17:50:22.992Z,101703.34
2023-03-02T17:52:50.024Z,101703.28
2023-03-02T17:55:17.082Z,101706.28
2023-03-02T17:57:43.524Z,101713.13
2023-03-02T18:00:14.397Z,101714.69
2023-03-02T18:02:40.984Z,101713.47
2023-03-02T18:05:10.022Z,101712.28
2023-03-02T18:07:37.073Z,101719.19
2023-03-02T18:10:05.144Z,101722.69
2023-03-02T18:12:31.676Z,101715.50
2023-03-02T18:14:58.106Z,101718.75
2023-03-02T18:17:24.758Z,101718.63
2023-03-02T18:19:51.313Z,101721.13
2023-03-02T18:22:17.804Z,101720.47
2023-03-02T18:24:44.350Z,101725.75
2023-03-02T18:27:10.787Z,101723.75
2023-03-02T18:29:37.371Z,101732.78
2023-03-02T18:32:03.946Z,101730.16
2023-03-02T18:34:30.574Z,101735.13
2023-03-02T18:36:57.064Z,101737.91
2023-03-02T18:39:23.604Z,101737.22
2023-03-02T18:41:50.070Z,101729.16
2023-03-02T18:44:16.558Z,101731.56
2023-03-02T18:46:43.088Z,101726.50
2023-03-02T18:49:09.660Z,101725.75
2023-03-02T18:51:36.197Z,101725.63
2023-03-02T18:54:02.671Z,101737.97
2023-03-02T18:56:29.230Z,101723.41
2023-03-02T18:58:55.736Z,101727.56
2023-03-02T19:01:22.431Z,101719.19
2023-03-02T19:03:49.262Z,101723.25
2023-03-02T19:06:16.515Z,101729.72
2023-03-02T19:08:43.389Z,101723.59
2023-03-02T19:11:11.724Z,101720.72
2023-03-02T19:13:38.376Z,101727.69
2023-03-02T19:16:05.398Z,101721.75
2023-03-02T19:18:32.026Z,101722.25
2023-03-02T19:20:58.673Z,101720.63
2023-03-02T19:23:25.237Z,101723.72
2023-03-02T19:25:52.353Z,101729.41
2023-03-02T19:28:19.120Z,101728.13
2023-03-02T19:30:45.623Z,101732.75
2023-03-02T19:33:12.157Z,101731.66
2023-03-02T19:35:39.096Z,101736.69
2023-03-02T19:38:06.850Z,101732.25
2023-03-02T19:40:34.587Z,101727.75
2023-03-02T19:43:01.710Z,101731.25
2023-03-02T19:45:31.405Z,101731.06
2023-03-02T19:47:59.461Z,101729.38
2023-03-02T19:50:28.006Z,101726.78
2023-03-02T19:52:54.948Z,101735.19
2023-03-02T19:55:24.213Z,101738.50
2023-03-02T19:57:56.351Z,101733.41
2023-03-02T20:00:24.252Z,101738.31
2023-03-02T20:02:50.795Z,101734.84
2023-03-02T20:05:17.701Z,101732.09
2023-03-02T20:07:44.605Z,101740.56
2023-03-02T20:10:21.693Z,101747.75
2023-03-02T20:12:48.115Z,101741.59
2023-03-02T20:15:14.621Z,101740.47
2023-03-02T20:17:41.111Z,101744.00
2023-03-02T20:20:08.102Z,101751.38
2023-03-02T20:22:35.188Z,101763.63
2023-03-02T20:25:01.845Z,101762.53
2023-03-02T20:27:28.325Z,101753.91
2023-03-02T20:29:54.845Z,101761.59
2023-03-02T20:32:21.605Z,101760.94
2023-03-02T20:34:48.172Z,101754.13
2023-03-02T20:37:15.770Z,101756.03
2023-03-02T20:39:45.171Z,101761.88
2023-03-02T20:42:12.213Z,101756.69
2023-03-02T20:44:38.814Z,101763.63
2023-03-02T20:47:08.428Z,101763.47
2023-03-02T20:49:37.728Z,101764.56
2023-03-02T20:52:05.545Z,101766.16
2023-03-02T20:54:35.786Z,101766.94
2023-03-02T20:57:02.707Z,101765.38
2023-03-02T20:59:29.227Z,101758.66
2023-03-02T21:01:55.791Z,101771.78
2023-03-02T21:04:22.907Z,101778.63
2023-03-02T21:06:51.752Z,101772.94
2023-03-02T21:09:18.675Z,101769.31
2023-03-02T21:11:46.239Z,101776.94
2023-03-02T21:14:14.224Z,101772.59
2023-03-02T21:16:43.146Z,101776.59
2023-03-02T21:19:13.710Z,101774.38
2023-03-02T21:21:42.391Z,101774.28
2023-03-02T21:24:11.594Z,101769.88
2023-03-02T21:26:38.857Z,101761.94
2023-03-02T21:29:05.878Z,101770.47
2023-03-02T21:31:33.027Z,101768.31
2023-03-02T21:34:00.622Z,101762.44
2023-03-02T21:36:28.074Z,101768.66
2023-03-02T21:38:54.745Z,101766.59
2023-03-02T21:41:21.591Z,101764.78
2023-03-02T21:43:48.745Z,101770.16
2023-03-02T21:46:18.410Z,101762.19
2023-03-02T21:48:45.915Z,101766.94
2023-03-02T21:51:13.814Z,101766.09
2023-03-02T21:53:40.734Z,101758.03
2023-03-02T21:56:08.168Z,101761.50
2023-03-02T21:58:35.095Z,101766.75
2023-03-02T22:01:01.673Z,101754.41
2023-03-02T22:03:28.140Z,101747.44
2023-03-02T22:05:54.561Z,101756.94
2023-03-02T22:08:21.653Z,101751.59
2023-03-02T22:10:50.224Z,101751.97
2023-03-02T22:13:22.246Z,101757.00
2023-03-02T22:15:51.112Z,101749.88
2023-03-02T22:18:19.966Z,101745.41
2023-03-02T22:20:49.244Z,101748.66
2023-03-02T22:23:22.071Z,101743.13
2023-03-02T22:25:54.010Z,101744.84
2023-03-02T22:28:25.987Z,101738.91
2023-03-02T22:30:57.946Z,101743.25
2023-03-02T22:33:28.130Z,101739.06
2023-03-02T22:36:02.121Z,101740.78
2023-03-02T22:38:30.752Z,101728.97
2023-03-02T22:40:57.514Z,101740.69
2023-03-02T22:43:33.007Z,101735.94
2023-03-02T22:46:08.782Z,101725.31
2023-03-02T22:48:36.705Z,101721.28
2023-03-02T22:51:14.058Z,101717.69
2023-03-02T22:53:46.745Z,101711.63
2023-03-02T22:56:28.366Z,101716.22
2023-03-02T22:58:55.461Z,101711.72
2023-03-02T23:01:38.495Z,101714.41
2023-03-02T23:04:08.012Z,101716.19
2023-03-02T23:06:47.205Z,101719.94
2023-03-02T23:09:17.970Z,101720.78
2023-03-02T23:11:45.305Z,101715.78
2023-03-02T23:14:21.145Z,101708.78
2023-03-02T23:17:08.082Z,101692.44
2023-03-02T23:19:34.657Z,101703.09
2023-03-02T23:22:01.125Z,101698.72
2023-03-02T23:24:27.636Z,101698.59
2023-03-02T23:26:54.195Z,101695.25
2023-03-02T23:29:21.351Z,101695.91
2023-03-02T23:31:48.980Z,101687.13
2023-03-02T23:34:15.965Z,101667.31
2023-03-02T23:36:42.701Z,101667.22
2023-03-02T23:39:09.838Z,101667.19
2023-03-02T23:41:37.476Z,101673.78
2023-03-02T23:44:05.500Z,101676.44
2023-03-02T23:46:32.485Z,101697.44
2023-03-02T23:48:59.359Z,101699.25
2023-03-02T23:51:26.235Z,101696.38
2023-03-02T23:53:53.873Z,101701.75
2023-03-02T23:56:20.941Z,101697.72
2023-03-02T23:58:48.073Z,101705.97
